Time;durP1;ratioP1;P1;durP2;ratioP2;P2;SDS_P1;SDS_P2;PMS_P1;PMS_P2;Temp;Humidity;BMP_temperature;BMP_pressure;BME280_temperature;BME280_humidity;BME280_pressure;Samples;Min_cycle;Max_cycle;Signal;HPM_P1;HPM_P2
2023/06/27 00:00:30;;;;;;;3.33;1.27;;;;;;;21.54;40.66;96963.41;4960229;29;20059;-77
2023/06/27 00:02:58;;;;;;;2.28;1.20;;;;;;;21.58;40.47;96963.69;4960133;28;20114;-77
2023/06/27 00:05:27;;;;;;;5.03;1.40;;;;;;;21.60;40.41;96966.91;4960033;29;20051;-77
2023/06/27 00:07:55;;;;;;;4.78;1.67;;;;;;;21.60;40.69;96972.22;4960112;28;20114;-77
2023/06/27 00:10:22;;;;;;;2.33;1.20;;;;;;;21.58;40.08;96971.66;4960531;29;20059;-78
2023/06/27 00:12:52;;;;;;;3.10;1.50;;;;;;;21.55;40.08;96964.19;4960273;28;20059;-77
2023/06/27 00:15:20;;;;;;;2.38;1.17;;;;;;;21.47;40.24;96965.44;4960169;28;20150;-77
2023/06/27 00:17:47;;;;;;;2.67;1.30;;;;;;;21.49;40.35;96973.13;4959831;29;20471;-77
2023/06/27 00:20:15;;;;;;;2.65;1.20;;;;;;;21.46;40.38;96969.09;4960046;28;20051;-76
2023/06/27 00:22:46;;;;;;;2.65;1.67;;;;;;;21.43;40.19;96985.53;4960050;28;20463;-77
2023/06/27 00:25:14;;;;;;;2.20;1.40;;;;;;;21.34;40.50;96977.13;4960108;28;20114;-76
2023/06/27 00:27:42;;;;;;;4.07;1.27;;;;;;;21.28;40.36;96983.41;4959775;28;20047;-77
2023/06/27 00:30:10;;;;;;;4.03;1.20;;;;;;;21.24;40.41;96984.91;4960041;29;20054;-77
2023/06/27 00:32:38;;;;;;;5.32;1.45;;;;;;;21.23;40.57;96977.19;4959805;29;20482;-76
2023/06/27 00:35:06;;;;;;;2.13;1.05;;;;;;;21.24;40.52;96990.22;4959961;29;20078;-78
2023/06/27 00:37:34;;;;;;;4.57;1.13;;;;;;;21.25;40.46;96989.16;4960005;29;20055;-78
2023/06/27 00:40:04;;;;;;;8.40;1.63;;;;;;;21.26;40.60;96982.84;4959558;29;20083;-77
2023/06/27 00:42:32;;;;;;;3.90;1.35;;;;;;;21.24;40.17;96984.91;4959771;29;20051;-78
2023/06/27 00:44:59;;;;;;;2.08;1.30;;;;;;;21.21;40.67;96990.72;4959645;28;20083;-78
2023/06/27 00:47:27;;;;;;;1.63;0.90;;;;;;;21.24;40.45;96987.56;4959926;29;20134;-77
2023/06/27 00:49:55;;;;;;;2.03;1.00;;;;;;;21.26;40.46;96988.13;4956782;28;20061;-78
2023/06/27 00:52:22;;;;;;;2.78;1.17;;;;;;;21.24;40.59;96986.78;4956677;29;20138;-76
2023/06/27 00:54:51;;;;;;;1.70;1.13;;;;;;;21.25;40.51;96991.03;4956647;29;20076;-78
2023/06/27 00:57:20;;;;;;;4.10;1.20;;;;;;;21.23;40.82;96990.47;4956458;29;20141;-78
2023/06/27 00:59:47;;;;;;;1.98;1.30;;;;;;;21.19;40.37;96982.19;4956625;29;20083;-76
2023/06/27 01:02:15;;;;;;;3.85;1.30;;;;;;;21.09;40.48;96985.47;4962333;29;20055;-79
2023/06/27 01:04:43;;;;;;;2.35;1.40;;;;;;;20.99;40.76;96978.16;4967880;29;20044;-79
2023/06/27 01:07:15;;;;;;;4.03;1.20;;;;;;;20.95;40.51;96984.16;4963631;29;20582;-79
2023/06/27 01:09:49;;;;;;;1.50;1.17;;;;;;;20.88;40.92;96991.44;4958406;29;20055;-78
2023/06/27 01:12:24;;;;;;;3.58;1.30;;;;;;;20.82;41.10;96993.22;4956740;29;20490;-79
2023/06/27 01:14:55;;;;;;;3.15;1.65;;;;;;;20.82;40.99;96995.06;4957313;29;20074;-79
2023/06/27 01:17:23;;;;;;;2.13;1.08;;;;;;;20.83;41.27;96994.81;4956955;29;20098;-78
2023/06/27 01:19:52;;;;;;;2.83;1.45;;;;;;;20.81;41.05;96999.53;4956609;29;20043;-79
2023/06/27 01:22:29;;;;;;;4.28;1.50;;;;;;;20.77;41.10;96995.75;4956782;29;20051;-77
2023/06/27 01:24:59;;;;;;;5.45;1.70;;;;;;;20.75;41.47;96998.66;4956511;29;20427;-76
2023/06/27 01:27:28;;;;;;;3.65;1.20;;;;;;;20.76;41.07;96988.84;4956411;29;20515;-78
2023/06/27 01:29:57;;;;;;;4.65;1.70;;;;;;;20.72;40.92;96993.03;4956551;29;20530;-77
2023/06/27 01:32:28;;;;;;;5.05;1.15;;;;;;;20.70;41.07;97003.84;4956611;29;20078;-77
2023/06/27 01:35:04;;;;;;;3.22;1.33;;;;;;;20.73;41.66;97005.25;4956171;29;20054;-77
2023/06/27 01:37:36;;;;;;;2.70;1.10;;;;;;;20.77;41.60;96995.75;4955941;29;20558;-77
2023/06/27 01:40:11;;;;;;;3.10;1.60;;;;;;;20.84;41.67;97006.22;4956298;29;20088;-76
2023/06/27 01:42:42;;;;;;;4.93;1.10;;;;;;;20.89;41.38;97004.47;4956285;29;20090;-76
2023/06/27 01:45:11;;;;;;;2.10;1.10;;;;;;;20.93;40.99;97005.63;4956096;29;20102;-77
2023/06/27 01:47:42;;;;;;;3.35;1.45;;;;;;;20.96;41.00;97004.34;4955782;29;20051;-77
2023/06/27 01:50:11;;;;;;;3.30;1.40;;;;;;;20.95;40.97;97000.88;4956360;29;20055;-78
2023/06/27 01:52:39;;;;;;;3.65;1.10;;;;;;;20.98;41.29;97003.03;4956004;29;20483;-78
2023/06/27 01:55:08;;;;;;;2.28;1.15;;;;;;;21.02;41.54;97002.59;4955715;29;20046;-77
2023/06/27 01:57:37;;;;;;;2.53;1.15;;;;;;;21.01;41.23;97000.97;4955590;29;20055;-77
2023/06/27 02:00:06;;;;;;;4.80;1.38;;;;;;;21.02;41.33;96999.94;4955904;28;20055;-76
2023/06/27 02:02:34;;;;;;;3.28;1.23;;;;;;;21.01;41.78;96991.16;4955520;29;20047;-76
2023/06/27 02:05:02;;;;;;;3.15;1.38;;;;;;;20.97;41.20;96996.16;4955310;29;20047;-76
2023/06/27 02:07:29;;;;;;;2.22;1.20;;;;;;;20.94;42.11;96993.16;4955296;29;20051;-77
2023/06/27 02:09:57;;;;;;;3.42;1.63;;;;;;;20.94;41.48;96995.81;4955285;29;20053;-76
2023/06/27 02:12:26;;;;;;;2.22;1.27;;;;;;;20.91;41.20;96991.78;4955120;29;20539;-77
2023/06/27 02:14:54;;;;;;;3.90;1.33;;;;;;;20.88;41.40;96992.28;4955035;29;20047;-77
2023/06/27 02:17:21;;;;;;;7.95;1.75;;;;;;;20.85;41.47;96998.03;4955126;29;20051;-77
2023/06/27 02:19:49;;;;;;;5.32;1.80;;;;;;;20.84;41.58;96999.09;4955238;29;20051;-77
2023/06/27 02:22:16;;;;;;;3.45;1.70;;;;;;;20.84;41.42;97007.03;4955325;29;20134;-77
2023/06/27 02:24:44;;;;;;;3.92;1.48;;;;;;;20.86;41.48;96999.66;4954688;29;20496;-77
2023/06/27 02:27:12;;;;;;;2.10;1.20;;;;;;;20.90;41.70;97006.09;4954667;29;20463;-77
2023/06/27 02:29:41;;;;;;;2.42;1.30;;;;;;;20.87;41.32;97000.47;4955006;29;20055;-76
2023/06/27 02:32:09;;;;;;;2.05;1.33;;;;;;;20.87;42.06;97000.47;4955156;29;20062;-77
2023/06/27 02:34:37;;;;;;;6.22;1.58;;;;;;;20.89;41.42;96993.06;4954979;29;20090;-77
2023/06/27 02:37:05;;;;;;;4.75;1.50;;;;;;;20.85;41.27;96995.38;4954314;29;20194;-76
2023/06/27 02:39:32;;;;;;;7.35;1.55;;;;;;;20.80;41.35;97000.59;4953899;29;20535;-77
2023/06/27 02:42:00;;;;;;;4.50;1.27;;;;;;;20.74;41.49;96998.88;4955053;29;20492;-77
2023/06/27 02:44:28;;;;;;;2.00;1.30;;;;;;;20.71;41.86;96991.44;4954791;29;20118;-77
2023/06/27 02:46:56;;;;;;;3.90;1.30;;;;;;;20.70;41.80;96995.09;4953962;29;20062;-75
2023/06/27 02:49:24;;;;;;;1.45;1.08;;;;;;;20.68;41.91;96994.53;4953697;29;20101;-78
2023/06/27 02:51:51;;;;;;;3.83;1.38;;;;;;;20.66;41.90;96988.66;4952131;29;20578;-77
2023/06/27 02:54:19;;;;;;;2.85;1.45;;;;;;;20.60;41.43;96987.78;4951587;29;20094;-77
2023/06/27 02:56:47;;;;;;;2.63;1.50;;;;;;;20.48;41.74;96990.41;4952106;29;20055;-78
2023/06/27 02:59:14;;;;;;;2.67;1.15;;;;;;;20.38;41.77;96987.59;4952646;29;20067;-77
2023/06/27 03:01:42;;;;;;;5.93;1.15;;;;;;;20.31;41.98;96993.03;4952868;29;20118;-78
2023/06/27 03:04:11;;;;;;;1.35;1.10;;;;;;;20.29;42.62;96992.44;4952610;29;20047;-78
2023/06/27 03:06:41;;;;;;;2.13;1.30;;;;;;;20.30;42.16;97001.19;4953018;29;20078;-79
2023/06/27 03:09:09;;;;;;;2.88;1.10;;;;;;;20.30;42.69;97001.19;4954433;29;20499;-78
2023/06/27 03:11:36;;;;;;;4.53;1.30;;;;;;;20.31;42.60;96998.31;4954253;28;20070;-78
2023/06/27 03:14:04;;;;;;;6.53;1.20;;;;;;;20.34;42.77;97002.34;4954011;29;20067;-77
2023/06/27 03:16:31;;;;;;;2.05;1.20;;;;;;;20.37;42.53;97001.84;4954516;29;20467;-77
2023/06/27 03:18:59;;;;;;;7.63;1.40;;;;;;;20.35;42.07;97003.94;4954102;29;20051;-78
2023/06/27 03:21:28;;;;;;;1.73;1.23;;;;;;;20.33;42.28;97006.00;4954123;29;20106;-78
2023/06/27 03:23:55;;;;;;;2.45;1.25;;;;;;;20.34;42.22;96997.03;4954009;29;20507;-75
2023/06/27 03:26:27;;;;;;;1.38;1.20;;;;;;;20.33;42.01;97000.72;4953842;29;20138;-77
2023/06/27 03:28:55;;;;;;;5.85;1.13;;;;;;;20.25;41.96;97003.75;4959913;29;20055;-79
2023/06/27 03:31:23;;;;;;;2.35;1.30;;;;;;;20.16;42.22;97012.03;4958257;29;20090;-78
2023/06/27 03:33:52;;;;;;;2.60;1.70;;;;;;;20.06;42.39;97008.38;4955702;29;20495;-79
2023/06/27 03:36:19;;;;;;;3.05;1.30;;;;;;;19.98;42.62;97014.81;4954636;29;20135;-78
2023/06/27 03:38:50;;;;;;;3.40;1.48;;;;;;;19.92;42.60;97002.53;4954234;29;20054;-78
2023/06/27 03:41:18;;;;;;;4.22;1.55;;;;;;;19.86;42.72;97014.03;4954230;29;20058;-75
2023/06/27 03:43:45;;;;;;;4.85;1.48;;;;;;;19.81;43.12;97006.78;4954404;29;20134;-78
2023/06/27 03:46:14;;;;;;;2.88;1.27;;;;;;;19.79;43.21;97000.06;4953593;29;20054;-77
2023/06/27 03:48:42;;;;;;;3.40;1.40;;;;;;;19.77;44.48;97008.28;4953825;29;20070;-77
2023/06/27 03:51:09;;;;;;;1.27;1.00;;;;;;;19.72;43.48;97011.63;4953880;29;20063;-76
2023/06/27 03:53:37;;;;;;;2.03;1.52;;;;;;;19.68;43.56;97021.00;4953830;29;20089;-79
2023/06/27 03:56:06;;;;;;;5.20;1.50;;;;;;;19.65;43.67;97010.88;4954839;29;20093;-79
2023/06/27 03:58:33;;;;;;;3.00;1.27;;;;;;;19.62;43.74;97013.19;4954781;29;20340;-78
2023/06/27 04:01:01;;;;;;;4.30;1.55;;;;;;;19.61;43.96;97020.28;4953718;29;20055;-78
2023/06/27 04:03:29;;;;;;;4.00;1.17;;;;;;;19.65;44.40;97029.38;4954006;29;20105;-77
2023/06/27 04:05:56;;;;;;;7.43;1.13;;;;;;;19.65;43.86;97029.38;4953682;29;20059;-78
2023/06/27 04:08:24;;;;;;;3.92;1.40;;;;;;;19.64;43.80;97027.78;4953608;29;20468;-78
2023/06/27 04:10:52;;;;;;;2.88;1.52;;;;;;;19.60;43.83;97034.56;4953730;29;20051;-76
2023/06/27 04:13:21;;;;;;;2.00;1.58;;;;;;;19.59;43.91;97030.34;4953594;29;20130;-78
2023/06/27 04:15:48;;;;;;;4.13;1.58;;;;;;;19.59;43.86;97018.91;4953596;29;20579;-77
2023/06/27 04:18:16;;;;;;;4.10;1.27;;;;;;;19.56;44.06;97026.28;4953480;29;20397;-77
2023/06/27 04:20:43;;;;;;;3.08;1.65;;;;;;;19.56;44.13;97028.13;4953601;29;20142;-78
2023/06/27 04:23:12;;;;;;;2.92;1.48;;;;;;;19.52;44.13;97026.97;4954005;28;20145;-77
2023/06/27 04:25:43;;;;;;;3.17;1.67;;;;;;;19.51;44.12;97020.06;4957056;29;20053;-77
2023/06/27 04:28:11;;;;;;;4.82;1.67;;;;;;;19.50;44.10;97029.84;4956939;29;20058;-77
2023/06/27 04:30:39;;;;;;;2.97;1.20;;;;;;;19.50;44.02;97034.31;4957382;29;20086;-77
2023/06/27 04:33:07;;;;;;;6.05;1.65;;;;;;;19.47;44.03;97029.50;4957138;29;20079;-77
2023/06/27 04:35:35;;;;;;;3.95;1.25;;;;;;;19.44;44.29;97043.16;4958481;29;20051;-79
2023/06/27 04:38:04;;;;;;;5.53;1.50;;;;;;;19.41;44.39;97036.50;4957479;29;20106;-78
2023/06/27 04:40:32;;;;;;;4.72;1.45;;;;;;;19.40;44.41;97036.75;4957039;29;20051;-77
2023/06/27 04:43:00;;;;;;;2.72;1.50;;;;;;;19.34;44.57;97033.16;4957103;29;20055;-77
2023/06/27 04:45:27;;;;;;;5.10;1.33;;;;;;;19.32;44.90;97030.72;4975752;23;20605;-77
2023/06/27 04:47:56;;;;;;;2.03;1.40;;;;;;;19.33;44.54;97034.19;4956893;29;20051;-78
2023/06/27 04:50:24;;;;;;;2.70;1.67;;;;;;;19.33;44.56;97040.28;4957375;29;20055;-78
2023/06/27 04:52:52;;;;;;;2.75;1.67;;;;;;;19.37;44.77;97034.53;4957202;29;20047;-78
2023/06/27 04:55:20;;;;;;;2.63;1.33;;;;;;;19.35;44.60;97038.22;4953776;29;20065;-78
2023/06/27 04:57:47;;;;;;;3.42;1.23;;;;;;;19.35;44.73;97045.34;4943528;29;20051;-77
2023/06/27 05:00:15;;;;;;;5.55;1.90;;;;;;;19.35;45.39;97046.16;4949528;29;20519;-76
2023/06/27 05:02:43;;;;;;;2.72;1.20;;;;;;;19.39;44.90;97043.03;4942853;29;20051;-77
2023/06/27 05:05:18;;;;;;;2.45;1.27;;;;;;;19.40;44.57;97050.75;4950180;29;20138;-75
2023/06/27 05:07:45;;;;;;;4.45;1.33;;;;;;;19.42;45.51;97051.34;4937454;29;20083;-77
2023/06/27 05:10:13;;;;;;;2.35;1.45;;;;;;;19.48;44.95;97050.44;4948981;29;20055;-76
2023/06/27 05:12:41;;;;;;;1.90;1.13;;;;;;;19.53;45.30;97057.69;4943837;29;20074;-76
2023/06/27 05:15:09;;;;;;;1.80;1.50;;;;;;;19.62;44.58;97064.25;4939060;29;20047;-77
2023/06/27 05:17:36;;;;;;;3.65;1.40;;;;;;;19.62;44.41;97047.59;4941513;29;20048;-77
2023/06/27 05:20:05;;;;;;;2.80;1.23;;;;;;;19.63;45.28;97054.47;4939094;29;20044;-76
2023/06/27 05:22:36;;;;;;;1.52;1.20;;;;;;;19.65;45.21;97057.69;4966171;29;20052;-78
2023/06/27 05:38:34;;;;;;;4.63;1.75;;;;;;;19.42;44.54;97055.84;5391584;23;20058;-79
2023/06/27 05:41:02;;;;;;;2.78;1.52;;;;;;;19.46;44.70;97054.31;4938487;29;20405;-79
2023/06/27 05:43:30;;;;;;;1.75;1.20;;;;;;;19.50;44.22;97060.78;4938231;29;20130;-79
2023/06/27 05:45:57;;;;;;;3.45;1.38;;;;;;;19.53;45.19;97060.34;4940103;29;20571;-79
2023/06/27 05:48:25;;;;;;;3.92;1.27;;;;;;;19.56;44.47;97058.03;4938226;29;20079;-79
2023/06/27 05:50:53;;;;;;;3.30;1.50;;;;;;;19.56;44.57;97060.66;4938979;29;20143;-79
2023/06/27 05:53:20;;;;;;;3.58;1.45;;;;;;;19.58;44.38;97057.81;4939038;29;20052;-79
2023/06/27 05:55:49;;;;;;;4.03;1.77;;;;;;;19.59;44.67;97063.91;4939439;29;20134;-79
2023/06/27 05:58:17;;;;;;;4.30;1.30;;;;;;;19.61;44.49;97067.13;4940407;29;20492;-79
2023/06/27 06:00:45;;;;;;;5.65;1.52;;;;;;;19.62;43.90;97064.25;4941323;29;20048;-79
2023/06/27 06:03:13;;;;;;;5.53;1.23;;;;;;;19.58;44.23;97063.09;4940956;29;20052;-79
2023/06/27 06:05:41;;;;;;;3.08;1.48;;;;;;;19.61;44.51;97061.84;4940151;29;20062;-79
2023/06/27 06:08:09;;;;;;;3.75;1.65;;;;;;;19.67;43.79;97064.38;4939940;29;20075;-79
2023/06/27 06:10:37;;;;;;;4.35;1.42;;;;;;;19.69;43.90;97069.44;4939783;29;20099;-79
2023/06/27 06:13:06;;;;;;;5.47;1.88;;;;;;;19.72;43.71;97069.84;4939958;29;20120;-79
2023/06/27 06:15:33;;;;;;;2.72;1.30;;;;;;;19.74;43.64;97059.84;4940423;29;20063;-79
2023/06/27 06:18:01;;;;;;;3.88;1.77;;;;;;;19.73;43.71;97063.50;4940580;29;20058;-79
2023/06/27 06:20:30;;;;;;;2.20;1.30;;;;;;;19.72;43.63;97063.72;4940543;29;20571;-79
2023/06/27 06:22:59;;;;;;;3.05;1.08;;;;;;;19.73;43.86;97055.56;4941750;29;20048;-79
2023/06/27 06:25:27;;;;;;;2.65;1.00;;;;;;;19.84;43.58;97061.91;4940784;29;20396;-79
2023/06/27 06:27:55;;;;;;;2.63;1.38;;;;;;;19.98;43.03;97059.81;4941126;29;20067;-79
2023/06/27 06:30:24;;;;;;;3.95;2.00;;;;;;;20.11;42.78;97062.22;4941223;29;20048;-79
2023/06/27 06:32:52;;;;;;;4.40;2.42;;;;;;;20.13;42.60;97049.56;4940802;29;20048;-79
2023/06/27 06:35:19;;;;;;;9.70;3.72;;;;;;;20.14;42.68;97059.13;4939676;29;20516;-79
2023/06/27 06:37:47;;;;;;;4.50;1.58;;;;;;;20.17;42.48;97057.88;4939728;29;20055;-79
2023/06/27 06:40:15;;;;;;;4.28;1.20;;;;;;;20.19;42.54;97062.94;4940134;29;20062;-79
2023/06/27 06:42:42;;;;;;;1.65;1.27;;;;;;;20.17;42.74;97063.97;4939878;29;20083;-79
2023/06/27 06:45:10;;;;;;;3.25;1.63;;;;;;;20.15;42.51;97071.34;4939200;29;20091;-79
2023/06/27 06:47:39;;;;;;;3.70;1.50;;;;;;;20.11;42.58;97072.03;4937362;29;20078;-79
2023/06/27 06:50:07;;;;;;;1.85;1.20;;;;;;;20.14;42.88;97069.72;4939289;29;20130;-79
2023/06/27 06:52:35;;;;;;;1.60;0.88;;;;;;;20.28;43.02;97072.94;4939630;29;20099;-79
2023/06/27 06:55:03;;;;;;;2.75;1.20;;;;;;;20.40;42.26;97069.47;4938712;29;20504;-79
2023/06/27 06:57:30;;;;;;;3.38;1.05;;;;;;;20.45;41.82;97078.34;4939745;29;20047;-79
2023/06/27 06:59:58;;;;;;;1.67;1.38;;;;;;;20.46;41.48;97085.25;4939465;29;20118;-79
2023/06/27 07:02:26;;;;;;;2.53;1.23;;;;;;;20.44;41.05;97076.72;4940150;29;20110;-79
2023/06/27 07:04:55;;;;;;;3.20;1.00;;;;;;;20.37;41.22;97073.41;4940011;29;20070;-79
2023/06/27 07:07:23;;;;;;;2.95;1.42;;;;;;;20.38;41.46;97072.38;4938760;29;20078;-79
2023/06/27 07:09:51;;;;;;;2.88;1.30;;;;;;;20.40;41.16;97078.25;4939586;29;20059;-79
2023/06/27 07:12:19;;;;;;;3.60;1.15;;;;;;;20.40;41.61;97070.28;4939635;29;20047;-79
2023/06/27 07:14:46;;;;;;;2.47;1.40;;;;;;;20.45;41.24;97082.84;4939712;29;20512;-79
2023/06/27 07:17:14;;;;;;;2.80;1.35;;;;;;;20.42;41.13;97078.78;4939699;29;20051;-79
2023/06/27 07:19:42;;;;;;;2.22;1.20;;;;;;;20.43;41.17;97074.31;4939794;29;20130;-79
2023/06/27 07:22:11;;;;;;;1.75;1.10;;;;;;;20.46;41.39;97077.28;4939177;29;20056;-79
2023/06/27 07:24:39;;;;;;;2.45;1.10;;;;;;;20.48;41.31;97072.56;4939596;29;20143;-79
2023/06/27 07:27:07;;;;;;;2.13;1.48;;;;;;;20.54;41.31;97074.28;4939670;29;20051;-79
2023/06/27 07:29:35;;;;;;;3.03;1.13;;;;;;;20.52;41.37;97079.00;4939983;29;20500;-79
2023/06/27 07:32:04;;;;;;;4.40;1.23;;;;;;;20.50;41.34;97080.28;4938511;29;20091;-79
2023/06/27 07:34:33;;;;;;;2.65;1.48;;;;;;;20.48;41.48;97079.72;4939943;29;20083;-79
2023/06/27 07:37:01;;;;;;;26.83;18.77;;;;;;;20.50;41.81;97083.75;4938830;29;20058;-79
2023/06/27 07:39:30;;;;;;;8.13;3.00;;;;;;;20.54;41.62;97090.19;4939329;29;20111;-79
2023/06/27 07:41:57;;;;;;;3.88;1.90;;;;;;;20.53;41.77;97085.94;4940249;29;20505;-79
2023/06/27 07:44:25;;;;;;;3.92;1.20;;;;;;;20.54;42.29;97082.25;4940066;29;20052;-79
2023/06/27 07:46:53;;;;;;;5.13;1.60;;;;;;;20.59;41.67;97078.91;4940550;29;20420;-79
2023/06/27 07:49:21;;;;;;;3.58;1.67;;;;;;;20.57;41.72;97081.00;4939982;29;20135;-79
2023/06/27 07:51:51;;;;;;;1.67;0.98;;;;;;;20.56;42.24;97082.00;4940903;29;20055;-79
2023/06/27 07:54:20;;;;;;;3.63;1.52;;;;;;;20.60;41.89;97085.84;4940372;29;20059;-79
2023/06/27 07:56:52;;;;;;;2.42;1.45;;;;;;;20.60;42.08;97085.84;4939492;29;20052;-79
2023/06/27 07:59:19;;;;;;;6.38;1.63;;;;;;;20.65;41.96;97069.22;4942116;29;20488;-79
2023/06/27 08:01:47;;;;;;;4.18;1.25;;;;;;;20.66;41.46;97073.47;4943997;29;20130;-79
2023/06/27 08:04:15;;;;;;;3.22;1.50;;;;;;;20.68;41.51;97076.72;4944206;29;20503;-79
2023/06/27 08:06:43;;;;;;;2.10;1.30;;;;;;;20.70;41.54;97071.97;4944653;29;20059;-79
2023/06/27 08:09:11;;;;;;;8.85;1.95;;;;;;;20.74;41.04;97073.13;4950595;29;20181;-79
2023/06/27 08:11:39;;;;;;;3.20;1.30;;;;;;;20.73;40.79;97076.81;4956895;29;20119;-79
2023/06/27 08:14:08;;;;;;;1.50;1.08;;;;;;;20.80;41.31;97072.19;4947975;29;20051;-79
2023/06/27 08:16:36;;;;;;;3.35;1.00;;;;;;;20.85;40.94;97066.97;4944005;29;20060;-79
2023/06/27 08:19:04;;;;;;;3.03;1.05;;;;;;;20.88;40.78;97074.47;4943717;29;20492;-79
2023/06/27 08:21:31;;;;;;;6.63;1.40;;;;;;;20.89;40.49;97084.03;4946970;29;20071;-79
2023/06/27 08:23:59;;;;;;;3.58;1.58;;;;;;;20.88;40.33;97074.47;4954439;29;20079;-79
2023/06/27 08:26:27;;;;;;;4.10;2.17;;;;;;;20.87;40.71;97075.50;4951606;29;20118;-79
2023/06/27 08:28:54;;;;;;;15.90;11.57;;;;;;;20.99;40.80;97078.13;4951715;29;20047;-79
2023/06/27 08:31:23;;;;;;;4.50;2.38;;;;;;;21.10;40.09;97081.75;4943936;29;20082;-79
2023/06/27 08:33:51;;;;;;;2.75;1.40;;;;;;;21.11;40.27;97080.72;4944235;29;20052;-79
2023/06/27 08:36:19;;;;;;;2.33;1.38;;;;;;;21.11;40.10;97070.13;4943951;29;20122;-79
2023/06/27 08:38:47;;;;;;;2.22;1.70;;;;;;;21.10;39.89;97061.34;4944189;29;20052;-79
2023/06/27 08:41:17;;;;;;;4.95;1.67;;;;;;;21.11;39.89;97062.94;4944102;29;20047;-79
2023/06/27 08:43:45;;;;;;;2.90;1.20;;;;;;;21.12;40.02;97058.44;4945397;29;20119;-79
2023/06/27 08:46:13;;;;;;;3.30;1.33;;;;;;;21.12;39.89;97056.63;4944225;29;20083;-79
2023/06/27 08:48:44;;;;;;;2.35;1.40;;;;;;;21.14;40.20;97053.72;4944726;29;20088;-79
2023/06/27 08:51:13;;;;;;;2.38;1.30;;;;;;;21.19;39.94;97056.47;4945397;29;20086;-79
2023/06/27 08:53:43;;;;;;;3.72;1.20;;;;;;;21.25;39.67;97054.69;4944972;29;20055;-79
2023/06/27 08:56:13;;;;;;;3.03;1.08;;;;;;;21.32;39.70;97058.03;4944750;29;20051;-79
2023/06/27 08:58:45;;;;;;;2.53;1.55;;;;;;;21.36;39.77;97057.31;4944537;29;20122;-80
2023/06/27 09:01:13;;;;;;;5.22;1.75;;;;;;;21.38;39.65;97060.53;4945298;29;20080;-79
2023/06/27 09:03:42;;;;;;;5.75;1.70;;;;;;;21.39;39.37;97056.81;4945174;29;20138;-79
2023/06/27 09:06:13;;;;;;;4.03;1.67;;;;;;;21.39;39.33;97056.81;4944720;29;20516;-79
2023/06/27 09:08:42;;;;;;;5.13;1.75;;;;;;;21.37;39.58;97050.94;4942267;29;20051;-79
2023/06/27 09:11:09;;;;;;;3.55;1.40;;;;;;;21.38;39.87;97052.56;4944318;29;20063;-79
2023/06/27 09:13:38;;;;;;;3.95;1.30;;;;;;;21.39;39.52;97051.50;4945365;29;20078;-79
2023/06/27 09:16:07;;;;;;;1.38;1.08;;;;;;;21.42;39.44;97052.09;4945243;29;20056;-79
2023/06/27 09:18:38;;;;;;;7.03;1.55;;;;;;;21.36;39.18;97036.06;4943718;29;20528;-80
2023/06/27 09:21:07;;;;;;;2.90;1.20;;;;;;;21.43;39.38;97037.78;4945141;29;20504;-79
2023/06/27 09:23:35;;;;;;;1.88;1.20;;;;;;;21.54;39.34;97043.03;4945470;29;20047;-79
2023/06/27 09:26:06;;;;;;;3.28;1.20;;;;;;;21.65;38.97;97035.25;4945714;29;20059;-79
2023/06/27 09:28:44;;;;;;;2.83;1.53;;;;;;;21.76;39.26;97039.66;4946025;29;20063;-80
2023/06/27 09:31:13;;;;;;;1.90;1.23;;;;;;;21.90;39.04;97040.13;4945781;29;20107;-80
2023/06/27 09:33:43;;;;;;;4.30;1.45;;;;;;;21.97;38.70;97040.75;4946635;29;20055;-79
2023/06/27 09:36:30;;;;;;;2.35;1.17;;;;;;;21.99;38.63;97041.31;4946952;29;20048;-80
2023/06/27 09:39:01;;;;;;;2.58;1.20;;;;;;;22.05;38.37;97044.84;4946869;29;20062;-80
2023/06/27 09:41:41;;;;;;;1.50;1.27;;;;;;;22.13;38.27;97037.28;4947185;29;20134;-80
2023/06/27 09:44:13;;;;;;;40.55;30.55;;;;;;;22.20;39.00;97045.84;4944349;29;20122;-80
2023/06/27 09:46:42;;;;;;;4.40;3.53;;;;;;;22.30;38.46;97045.25;4946810;29;20097;-80
2023/06/27 09:49:10;;;;;;;4.95;1.60;;;;;;;22.35;37.79;97039.19;4947557;29;20048;-80
2023/06/27 09:51:39;;;;;;;4.63;1.60;;;;;;;22.42;37.34;97029.97;4947252;29;20055;-80
2023/06/27 09:54:07;;;;;;;2.03;1.45;;;;;;;22.52;37.22;97021.31;4949269;29;20052;-80
2023/06/27 09:56:35;;;;;;;5.57;1.77;;;;;;;22.62;36.77;97029.41;4948089;29;20048;-79
2023/06/27 09:59:10;;;;;;;1.90;1.10;;;;;;;22.63;36.27;97028.38;4949075;29;20052;-80
2023/06/27 10:01:51;;;;;;;1.63;0.82;;;;;;;22.64;36.29;97026.50;4951164;29;20075;-80
2023/06/27 10:04:19;;;;;;;4.40;1.38;;;;;;;22.67;36.47;97028.66;4947903;29;20047;-81
2023/06/27 10:06:48;;;;;;;1.50;1.10;;;;;;;22.71;36.06;97026.31;4947072;29;20050;-80
2023/06/27 10:09:16;;;;;;;1.67;1.02;;;;;;;22.79;36.01;97031.19;4946997;29;20099;-80
2023/06/27 10:11:44;;;;;;;4.38;1.95;;;;;;;22.87;35.80;97022.78;4947430;29;20047;-81
2023/06/27 10:14:12;;;;;;;3.67;1.65;;;;;;;22.94;35.36;97031.34;4946946;29;20056;-80
2023/06/27 10:16:40;;;;;;;4.85;3.67;;;;;;;22.97;35.61;97030.84;4945603;29;20048;-81
2023/06/27 10:19:08;;;;;;;4.55;1.30;;;;;;;23.03;35.59;97031.75;4946531;29;20048;-81
2023/06/27 10:21:36;;;;;;;3.13;1.80;;;;;;;23.11;35.61;97035.78;4944975;29;20051;-80
2023/06/27 10:24:06;;;;;;;3.60;1.60;;;;;;;23.24;35.36;97038.88;4943938;29;20048;-80
2023/06/27 10:26:34;;;;;;;2.05;1.08;;;;;;;23.34;35.09;97037.34;4942377;29;20051;-80
2023/06/27 10:29:13;;;;;;;3.58;1.35;;;;;;;23.41;35.17;97032.63;4941301;29;20404;-81
2023/06/27 10:31:44;;;;;;;2.67;1.10;;;;;;;23.59;34.88;97034.91;4940148;29;20060;-80
2023/06/27 10:34:18;;;;;;;2.60;1.30;;;;;;;23.77;34.87;97031.06;4939569;29;20058;-80
2023/06/27 10:36:57;;;;;;;2.75;1.60;;;;;;;23.83;34.66;97022.06;4938656;29;20051;-80
2023/06/27 10:39:28;;;;;;;5.13;1.30;;;;;;;23.87;34.40;97018.88;4937898;29;20114;-80
2023/06/27 10:42:00;;;;;;;3.58;1.35;;;;;;;23.91;34.43;97017.31;4937695;29;20070;-80
2023/06/27 10:44:29;;;;;;;3.45;1.70;;;;;;;23.88;34.41;97023.13;4937017;29;20423;-81
2023/06/27 10:47:29;;;;;;;2.53;1.50;;;;;;;23.90;34.04;97021.84;4937777;29;20071;-79
2023/06/27 10:50:06;;;;;;;4.75;1.88;;;;;;;23.93;34.28;97025.84;4930335;29;20055;-80
2023/06/27 10:52:34;;;;;;;4.55;1.70;;;;;;;23.95;34.02;97026.41;4937745;29;20047;-80
2023/06/27 10:55:23;;;;;;;2.75;1.20;;;;;;;23.97;33.95;97022.41;4937754;29;20099;-80
2023/06/27 10:58:02;;;;;;;2.28;1.08;;;;;;;23.98;34.14;97025.88;4948144;29;20051;-81
2023/06/27 11:00:32;;;;;;;4.93;2.67;;;;;;;23.93;34.23;97033.84;4942755;29;20148;-81
2023/06/27 11:03:03;;;;;;;6.00;2.67;;;;;;;23.88;34.11;97031.13;4949770;29;20123;-80
2023/06/27 11:05:45;;;;;;;5.13;2.25;;;;;;;23.83;34.39;97035.38;4953597;29;20040;-80
2023/06/27 11:08:15;;;;;;;5.95;2.15;;;;;;;23.80;34.17;97027.88;4954694;29;20040;-80
2023/06/27 11:10:52;;;;;;;4.30;1.85;;;;;;;23.81;33.87;97010.03;4955287;29;20087;-80
2023/06/27 11:13:22;;;;;;;2.28;1.50;;;;;;;23.79;33.86;97033.47;4954697;29;20047;-81
2023/06/27 11:15:51;;;;;;;10.68;5.72;;;;;;;23.79;33.82;97034.28;4955543;29;20047;-82
2023/06/27 11:18:20;;;;;;;7.20;3.75;;;;;;;23.79;33.73;97028.97;4956241;29;20052;-80
2023/06/27 11:20:49;;;;;;;11.63;6.00;;;;;;;23.79;33.66;97028.97;4957415;29;20083;-81
2023/06/27 11:23:18;;;;;;;6.15;3.10;;;;;;;23.81;33.52;97021.53;4956840;29;20052;-80
2023/06/27 11:25:47;;;;;;;4.32;1.10;;;;;;;23.82;33.52;97030.31;4954829;29;20048;-80
2023/06/27 11:28:18;;;;;;;3.80;1.35;;;;;;;23.76;33.54;97029.47;4947352;29;20051;-80
2023/06/27 11:30:46;;;;;;;1.60;1.00;;;;;;;23.74;33.99;97025.41;4943005;29;20075;-81
2023/06/27 11:33:16;;;;;;;2.65;0.82;;;;;;;23.77;33.90;97025.75;4938860;29;20078;-80
2023/06/27 11:35:44;;;;;;;4.47;1.33;;;;;;;23.82;34.00;97023.09;4936738;29;20126;-80
2023/06/27 11:38:12;;;;;;;1.98;1.30;;;;;;;23.78;33.11;97019.34;4936255;29;20055;-81
2023/06/27 11:40:48;;;;;;;4.30;1.23;;;;;;;23.73;33.25;97016.63;4936312;29;20051;-80
2023/06/27 11:43:18;;;;;;;5.15;1.40;;;;;;;23.79;33.33;97005.00;4936927;29;20056;-80
2023/06/27 11:45:47;;;;;;;1.52;1.23;;;;;;;23.88;33.76;97009.81;4936359;29;20143;-80
2023/06/27 11:48:14;;;;;;;2.83;1.42;;;;;;;23.92;33.50;97001.06;4936174;29;20056;-81
2023/06/27 11:50:56;;;;;;;49.13;19.35;;;;;;;23.97;32.48;97000.31;4936239;29;20099;-81
2023/06/27 11:53:26;;;;;;;13.63;4.05;;;;;;;23.94;32.91;96998.97;4936102;29;20562;-80
2023/06/27 11:55:55;;;;;;;4.75;2.45;;;;;;;23.98;32.76;96997.34;4936252;29;20084;-80